Thursday, October 19, 2017, 7:09 AM EDT
Back to Local

KOXC, Oxford, Waterbury-oxford Airport

Location: Oxford, CT, United States Lat: 41.483
Local Time: 7:09 AM EDT (11:09 GMT) Lon: -73.133
Time Zone: US/Eastern Elev: 725 ft

Show me the last for .
Show Decoded

2017-10-19 06:51 METAR KOXC 191051Z 00000KT 10SM CLR 08/07 A3024 RMK AO2 SLP255 T00780072 =
2017-10-19 05:51 METAR KOXC 190951Z 00000KT 10SM CLR 07/06 A3025 RMK AO2 SLP257 T00670061 =
2017-10-19 04:51 METAR KOXC 190851Z AUTO 00000KT 10SM CLR 08/07 A3025 RMK AO2 SLP254 T00780072
                 56006 =
2017-10-19 03:51 METAR KOXC 190751Z AUTO 00000KT 10SM CLR 09/08 A3025 RMK AO2 SLP255 T00890083 =
2017-10-19 02:51 METAR KOXC 190651Z AUTO 00000KT 10SM CLR 08/08 A3026 RMK AO2 SLP257 T00830078 =
2017-10-19 01:51 METAR KOXC 190551Z AUTO 00000KT 10SM CLR 08/08 A3027 RMK AO2 SLP261 T00830078
                 10144 20078 56007 =
2017-10-19 00:51 METAR KOXC 190451Z AUTO 00000KT 10SM CLR 08/07 A3027 RMK AO2 SLP263 T00830072
                 402170039 =
2017-10-18 23:51 METAR KOXC 190351Z AUTO 00000KT 10SM CLR 09/08 A3028 RMK AO2 SLP264 T00940083 =
2017-10-18 22:51 METAR KOXC 190251Z AUTO 00000KT 10SM CLR 10/08 A3029 RMK AO2 SLP271 T01000083
                 50003 =
2017-10-18 21:51 METAR KOXC 190151Z AUTO 00000KT 10SM CLR 12/09 A3030 RMK AO2 SLP273 T01170094 =
2017-10-18 20:51 METAR KOXC 190051Z 18003KT 10SM CLR 13/09 A3029 RMK AO2 SLP272 T01280094 =
2017-10-18 19:51 METAR KOXC 182351Z 00000KT 10SM CLR 14/09 A3028 RMK AO2 SLP268 T01390094 10217
                 20139 51010 =
2017-10-18 18:51 METAR KOXC 182251Z 17003KT 10SM CLR 15/09 A3028 RMK AO2 SLP268 T01500094 =
2017-10-18 17:51 METAR KOXC 182151Z 16003KT 10SM CLR 18/09 A3026 RMK AO2 SLP260 T01780089 =
2017-10-18 16:51 METAR KOXC 182051Z 00000KT 10SM CLR 21/06 A3025 RMK AO2 SLP256 T02060061 58007 =
2017-10-18 15:51 METAR KOXC 181951Z VRB05KT 10SM CLR 21/07 A3026 RMK AO2 SLP258 T02110067 =
2017-10-18 14:51 METAR KOXC 181851Z 26005KT 9SM CLR 21/07 A3027 RMK AO2 SLP261 T02060067 =
2017-10-18 13:51 METAR KOXC 181751Z 00000KT 10SM CLR 20/07 A3028 RMK AO2 SLP264 T02000072 10200
                 20050 58014 =
2017-10-18 12:51 METAR KOXC 181651Z VRB04KT 10SM CLR 19/07 A3030 RMK AO2 SLP273 T01940072 =
2017-10-18 11:51 METAR KOXC 181551Z 33004KT 10SM CLR 17/07 A3032 RMK AO2 SLP280 T01720067 =
2017-10-18 10:51 METAR KOXC 181451Z 31005KT 10SM CLR 15/06 A3032 RMK AO2 SLP279 T01500056 51008 =
2017-10-18 09:51 METAR KOXC 181351Z 00000KT 10SM CLR 12/04 A3031 RMK AO2 SLP281 T01220044 =
2017-10-18 08:51 METAR KOXC 181251Z 32003KT 10SM CLR 09/03 A3030 RMK AO2 SLP274 T00940033 =
2017-10-18 07:51 METAR KOXC 181151Z 00000KT 10SM CLR 05/03 A3029 RMK AO2 SLP274 T00500028 10078
                 20039 53012 =

Support USWX by starting your Amazon purchase here.